TimeEDT,TemperatureF,Dew PointF,Humidity,Sea Level PressureIn,VisibilityMPH,Wind Direction,Wind SpeedMPH,Gust SpeedMPH,PrecipitationIn,Events,Conditions,WindDirDegrees,DateUTC
12:52 AM,63.0,39.0,41,29.86,10.0,WSW,5.8,-,N/A,,Partly Cloudy,240,2013-03-17 04:52:00
1:52 AM,61.0,39.0,44,29.87,10.0,WSW,5.8,-,N/A,,Scattered Clouds,240,2013-03-17 05:52:00
3:52 AM,57.9,39.0,49,29.88,10.0,SW,4.6,-,N/A,,Clear,220,2013-03-17 07:52:00
4:52 AM,54.0,39.9,59,29.87,10.0,Calm,Calm,-,N/A,,Mostly Cloudy,0,2013-03-17 08:52:00
5:52 AM,53.1,39.0,59,29.88,10.0,Calm,Calm,-,N/A,,Mostly Cloudy,0,2013-03-17 09:52:00
6:52 AM,54.0,39.9,59,29.90,10.0,South,5.8,-,N/A,,Mostly Cloudy,190,2013-03-17 10:52:00
7:52 AM,53.1,39.9,61,29.91,10.0,South,3.5,-,N/A,,Mostly Cloudy,180,2013-03-17 11:52:00
8:52 AM,57.9,43.0,58,29.94,10.0,SSW,6.9,-,N/A,,Mostly Cloudy,200,2013-03-17 12:52:00
9:52 AM,61.0,42.1,50,29.94,10.0,WSW,4.6,-,N/A,,Mostly Cloudy,250,2013-03-17 13:52:00
10:52 AM,64.0,43.0,46,29.95,10.0,Variable,3.5,-,N/A,,Mostly Cloudy,0,2013-03-17 14:52:00
11:52 AM,70.0,45.0,41,29.95,10.0,SSW,3.5,-,N/A,,Mostly Cloudy,200,2013-03-17 15:52:00
12:52 PM,73.0,46.0,38,29.94,10.0,Variable,3.5,-,N/A,,Mostly Cloudy,0,2013-03-17 16:52:00
1:52 PM,75.9,46.0,35,29.91,10.0,NE,4.6,-,N/A,,Overcast,50,2013-03-17 17:52:00
2:52 PM,75.0,46.0,36,29.88,10.0,Calm,Calm,-,N/A,,Overcast,0,2013-03-17 18:52:00
3:52 PM,68.0,51.1,55,29.87,10.0,NE,16.1,25.3,N/A,,Overcast,50,2013-03-17 19:52:00
4:52 PM,64.9,48.9,56,29.90,9.0,NE,16.1,-,N/A,,Overcast,50,2013-03-17 20:52:00
5:52 PM,60.1,48.0,64,29.93,10.0,NE,13.8,-,N/A,,Overcast,40,2013-03-17 21:52:00
6:52 PM,59.0,46.9,64,29.95,10.0,NE,11.5,25.3,N/A,,Overcast,40,2013-03-17 22:52:00
7:52 PM,55.9,43.0,62,29.98,10.0,NNE,11.5,-,N/A,,Overcast,30,2013-03-17 23:52:00
8:52 PM,54.0,42.1,64,30.03,10.0,NE,9.2,-,N/A,,Overcast,40,2013-03-18 00:52:00
9:20 PM,53.6,42.8,67,30.04,10.0,NE,10.4,-,N/A,,Overcast,50,2013-03-18 01:20:00
9:52 PM,53.1,42.1,66,30.06,10.0,ENE,11.5,-,N/A,,Overcast,60,2013-03-18 01:52:00
10:37 PM,50.0,39.2,66,30.09,10.0,ENE,9.2,16.1,N/A,,Mostly Cloudy,60,2013-03-18 02:37:00
10:52 PM,48.9,39.9,71,30.09,10.0,NNE,10.4,18.4,N/A,,Overcast,30,2013-03-18 02:52:00
11:24 PM,48.2,39.2,71,30.10,10.0,NE,9.2,-,N/A,,Overcast,40,2013-03-18 03:24:00
11:52 PM,48.0,39.0,71,30.09,9.0,NE,10.4,-,N/A,,Overcast,50,2013-03-18 03:52:00